Time;durP1;ratioP1;P1;durP2;ratioP2;P2;SDS_P1;SDS_P2;PMS_P1;PMS_P2;Temp;Humidity;BMP_temperature;BMP_pressure;BME280_temperature;BME280_humidity;BME280_pressure;Samples;Min_cycle;Max_cycle;Signal;HPM_P1;HPM_P2
2021/12/01 00:00:34;;;;;;;12.38;2.20;;;;;;;7.35;100.00;99551.41;4972577;28;20114;-76
2021/12/01 00:03:02;;;;;;;10.98;1.58;;;;;;;7.49;100.00;99577.22;4979725;28;20104;-75
2021/12/01 00:05:30;;;;;;;11.93;1.65;;;;;;;7.44;100.00;99538.25;4944883;28;20117;-76
2021/12/01 00:08:00;;;;;;;14.10;1.83;;;;;;;7.52;100.00;99540.97;4974513;28;20061;-77
2021/12/01 00:10:34;;;;;;;13.57;1.55;;;;;;;7.39;100.00;99514.22;4971941;28;20027;-77
2021/12/01 00:13:01;;;;;;;16.77;1.85;;;;;;;7.25;100.00;99475.31;4976034;28;20051;-79
2021/12/01 00:15:43;;;;;;;16.77;2.00;;;;;;;7.52;100.00;99516.53;4984318;28;20026;-78
2021/12/01 00:18:32;;;;;;;12.48;2.00;;;;;;;7.52;100.00;99516.53;4971325;28;20054;-78
2021/12/01 00:21:09;;;;;;;17.13;2.00;;;;;;;7.20;100.00;99459.13;4979374;28;20485;-78
2021/12/01 00:23:35;;;;;;;11.23;1.90;;;;;;;7.30;100.00;99455.50;4942091;28;20445;-78
2021/12/01 00:26:02;;;;;;;13.15;1.90;;;;;;;7.32;100.00;99437.81;4961406;28;20458;-78
2021/12/01 00:28:30;;;;;;;15.90;1.90;;;;;;;7.45;100.00;99434.84;4977042;28;20027;-77
2021/12/01 00:30:57;;;;;;;14.43;2.05;;;;;;;7.53;100.00;99436.72;4959791;28;20610;-78
2021/12/01 00:33:23;;;;;;;15.65;1.92;;;;;;;7.76;100.00;99449.44;4985082;28;20503;-77
2021/12/01 00:35:54;;;;;;;23.10;2.08;;;;;;;7.58;100.00;99437.09;4960850;28;20445;-76
2021/12/01 00:38:20;;;;;;;15.52;1.80;;;;;;;7.51;100.00;99421.09;4967920;28;20049;-77
2021/12/01 00:40:47;;;;;;;17.70;2.13;;;;;;;7.69;100.00;99428.19;4957862;28;20062;-76
2021/12/01 00:43:18;;;;;;;11.20;1.98;;;;;;;7.80;100.00;99453.44;4959957;28;20153;-77
2021/12/01 00:46:00;;;;;;;16.38;2.30;;;;;;;7.78;100.00;99431.75;4957875;28;20023;-77
2021/12/01 00:48:27;;;;;;;14.48;2.00;;;;;;;7.75;100.00;99414.47;4975691;28;20495;-77
2021/12/01 00:50:54;;;;;;;19.77;2.35;;;;;;;7.63;100.00;99398.09;4977968;28;20473;-77
2021/12/01 00:53:20;;;;;;;15.07;2.05;;;;;;;7.48;100.00;99358.38;4975610;28;20033;-77
2021/12/01 00:55:47;;;;;;;16.48;2.20;;;;;;;7.45;100.00;99352.59;4944733;28;20019;-77
2021/12/01 00:58:14;;;;;;;15.68;2.35;;;;;;;7.45;100.00;99315.84;4973457;28;20061;-77
2021/12/01 01:00:43;;;;;;;21.13;2.42;;;;;;;7.58;100.00;99360.94;4982717;28;20417;-76
2021/12/01 01:03:11;;;;;;;17.33;2.97;;;;;;;7.74;100.00;99386.53;4955219;28;20113;-77
2021/12/01 01:05:40;;;;;;;15.57;2.40;;;;;;;7.83;100.00;99380.38;4975613;28;20019;-77
2021/12/01 01:08:07;;;;;;;23.75;2.70;;;;;;;7.82;100.00;99364.78;4940941;28;20375;-77
2021/12/01 01:10:46;;;;;;;25.13;2.65;;;;;;;7.69;100.00;99341.50;4976958;28;20026;-76
2021/12/01 01:18:59;;;;;;;17.67;2.03;;;;;;;7.67;100.00;99306.66;4978969;28;20062;-76
2021/12/01 01:21:34;;;;;;;16.83;2.30;;;;;;;7.46;100.00;99260.50;4980176;28;20030;-76
2021/12/01 01:24:02;;;;;;;18.98;2.25;;;;;;;7.74;100.00;99305.06;4972115;28;20065;-75
2021/12/01 01:26:32;;;;;;;27.42;2.63;;;;;;;7.63;100.00;99263.25;4962253;28;20019;-75
2021/12/01 01:29:00;;;;;;;21.77;2.50;;;;;;;7.88;100.00;99298.44;4970955;28;20031;-76
2021/12/01 01:31:27;;;;;;;21.83;2.70;;;;;;;7.56;100.00;99263.06;4998350;28;20018;-76
2021/12/01 01:33:53;;;;;;;18.73;2.30;;;;;;;7.88;100.00;99304.53;5004925;28;20072;-75
2021/12/01 01:36:19;;;;;;;30.67;2.80;;;;;;;7.51;100.00;99237.25;4977923;28;20015;-75
2021/12/01 01:38:48;;;;;;;18.85;2.75;;;;;;;7.49;100.00;99225.25;4990789;28;20126;-75
2021/12/01 01:41:15;;;;;;;21.25;2.97;;;;;;;7.55;100.00;99239.59;4987530;28;20040;-74
2021/12/01 01:43:42;;;;;;;25.15;2.70;;;;;;;7.48;100.00;99245.44;5007990;28;20065;-75
2021/12/01 01:46:08;;;;;;;17.05;2.15;;;;;;;7.73;100.00;99287.66;5003004;28;20038;-76
2021/12/01 01:48:45;;;;;;;18.02;2.47;;;;;;;7.59;100.00;99240.94;5009876;28;20022;-75
2021/12/01 01:51:12;;;;;;;17.52;2.50;;;;;;;7.70;100.00;99280.09;5015429;28;20121;-74
2021/12/01 01:53:38;;;;;;;12.18;1.88;;;;;;;7.51;100.00;99242.50;4978948;28;20010;-74
2021/12/01 01:56:06;;;;;;;17.02;2.33;;;;;;;7.57;100.00;99272.59;5005048;28;20021;-75
2021/12/01 01:58:33;;;;;;;19.17;2.25;;;;;;;7.40;100.00;99242.72;4990467;28;20041;-76
2021/12/01 02:01:06;;;;;;;18.75;2.60;;;;;;;7.42;100.00;99224.19;5013684;28;20053;-76
2021/12/01 02:03:35;;;;;;;21.70;2.80;;;;;;;7.12;100.00;99168.50;4962973;28;20018;-76
2021/12/01 02:06:01;;;;;;;19.88;3.03;;;;;;;7.45;100.00;99216.84;5000828;28;20088;-77
2021/12/01 02:08:32;;;;;;;26.70;3.05;;;;;;;7.35;100.00;99170.66;4981782;28;20022;-76
2021/12/01 02:10:59;;;;;;;19.55;2.72;;;;;;;7.44;100.00;99180.22;5002947;28;20032;-76
2021/12/01 02:13:26;;;;;;;24.95;3.08;;;;;;;7.25;100.00;99137.44;4997439;28;20079;-76
2021/12/01 02:15:53;;;;;;;28.20;3.67;;;;;;;7.59;100.00;99207.59;4990954;28;20018;-77
2021/12/01 02:18:20;;;;;;;22.15;2.85;;;;;;;7.44;100.00;99132.97;4980481;28;20125;-76
2021/12/01 02:21:13;;;;;;;24.50;2.95;;;;;;;7.67;100.00;99160.34;4998410;28;20026;-77
2021/12/01 02:23:46;;;;;;;23.45;2.85;;;;;;;7.38;100.00;99104.69;4988963;28;20019;-76
2021/12/01 02:26:14;;;;;;;19.67;2.97;;;;;;;7.65;100.00;99138.69;4990619;28;20033;-75
2021/12/01 02:28:43;;;;;;;23.50;3.15;;;;;;;7.82;100.00;99128.25;4971339;28;20023;-75
2021/12/01 02:31:09;;;;;;;24.58;2.58;;;;;;;7.83;100.00;99156.16;4998494;28;20049;-77
2021/12/01 02:33:35;;;;;;;22.08;3.03;;;;;;;7.86;100.00;99126.97;4966080;28;20026;-76
2021/12/01 02:36:02;;;;;;;20.48;2.67;;;;;;;7.82;100.00;99091.47;4983585;28;20018;-76
2021/12/01 02:38:28;;;;;;;16.48;2.42;;;;;;;7.68;100.00;99079.75;4978061;28;20022;-76
2021/12/01 02:40:54;;;;;;;16.13;2.00;;;;;;;7.74;100.00;99084.34;4977738;28;20069;-76
2021/12/01 02:43:24;;;;;;;18.58;2.22;;;;;;;7.78;100.00;99096.19;4991031;28;20113;-77
2021/12/01 02:45:54;;;;;;;15.30;2.53;;;;;;;7.93;100.00;99080.69;4961112;28;20066;-77
2021/12/01 02:48:21;;;;;;;15.25;2.22;;;;;;;7.94;100.00;99075.25;4994828;28;20427;-76
2021/12/01 02:50:47;;;;;;;14.43;1.98;;;;;;;7.99;100.00;99072.13;4975118;28;20034;-76
2021/12/01 02:53:16;;;;;;;20.42;2.10;;;;;;;7.98;100.00;99067.06;4992425;28;20495;-76
2021/12/01 02:55:54;;;;;;;15.07;1.90;;;;;;;7.91;100.00;99057.16;4996792;28;20053;-76
2021/12/01 02:58:24;;;;;;;15.65;1.80;;;;;;;8.01;100.00;99059.66;4974254;28;20022;-76
2021/12/01 03:00:54;;;;;;;13.93;2.15;;;;;;;8.00;100.00;99055.41;4989572;28;20115;-76
2021/12/01 03:03:20;;;;;;;15.82;1.83;;;;;;;7.89;100.00;99045.19;4960690;28;20031;-76
2021/12/01 03:05:47;;;;;;;15.77;2.15;;;;;;;7.78;100.00;99024.44;4975016;28;20444;-76
2021/12/01 03:08:15;;;;;;;14.20;1.90;;;;;;;7.82;100.00;99020.53;4977241;28;20070;-75
2021/12/01 03:10:46;;;;;;;12.05;1.75;;;;;;;7.61;100.00;98986.75;4989785;28;20033;-75
2021/12/01 03:13:14;;;;;;;12.45;1.60;;;;;;;7.73;100.00;99020.47;4959088;28;20368;-76
2021/12/01 03:15:40;;;;;;;9.02;2.05;;;;;;;7.47;100.00;98959.28;4996439;28;20042;-76
2021/12/01 03:18:09;;;;;;;11.82;1.63;;;;;;;7.60;100.00;98977.25;4989115;28;20476;-77
2021/12/01 03:20:35;;;;;;;9.65;1.40;;;;;;;7.57;100.00;98983.66;4972755;28;20117;-76
2021/12/01 03:23:01;;;;;;;10.95;1.77;;;;;;;7.69;100.00;98984.16;4980109;28;20053;-77
2021/12/01 03:25:27;;;;;;;9.60;1.38;;;;;;;7.57;100.00;98972.31;4973892;28;20484;-77
2021/12/01 03:27:56;;;;;;;7.47;1.23;;;;;;;7.46;100.00;98942.72;4986833;28;20030;-76
2021/12/01 03:30:23;;;;;;;10.23;1.63;;;;;;;7.26;100.00;98917.72;4980692;28;20046;-76
2021/12/01 03:32:49;;;;;;;6.95;1.63;;;;;;;7.18;100.00;98915.06;4988851;28;20033;-76
2021/12/01 03:35:15;;;;;;;9.40;1.60;;;;;;;7.39;100.00;98948.78;4991901;28;20045;-77
2021/12/01 03:37:43;;;;;;;6.22;1.60;;;;;;;7.21;100.00;98925.25;4998310;28;20392;-76
2021/12/01 03:40:10;;;;;;;5.65;1.58;;;;;;;6.94;100.00;98894.78;4987717;28;20023;-76
2021/12/01 03:42:37;;;;;;;11.98;1.92;;;;;;;6.86;100.00;98875.41;4985340;28;20086;-76
2021/12/01 03:45:05;;;;;;;7.22;1.92;;;;;;;6.78;100.00;98875.34;4984135;28;20209;-76
2021/12/01 03:47:31;;;;;;;5.68;1.77;;;;;;;7.14;100.00;98922.44;4983177;28;20102;-76
2021/12/01 03:49:57;;;;;;;5.57;1.80;;;;;;;6.89;100.00;98911.81;4980426;28;20385;-77
2021/12/01 03:52:24;;;;;;;6.85;2.10;;;;;;;6.94;100.00;98895.59;4961452;28;20026;-76
2021/12/01 03:54:51;;;;;;;5.93;2.28;;;;;;;6.60;100.00;98864.91;4960420;28;20026;-77
2021/12/01 03:57:17;;;;;;;6.28;2.58;;;;;;;6.92;100.00;98904.59;4977356;28;20053;-77
2021/12/01 03:59:43;;;;;;;6.25;3.13;;;;;;;6.63;100.00;98864.63;4986059;28;20440;-77
2021/12/01 04:02:09;;;;;;;7.47;3.58;;;;;;;6.55;100.00;98840.97;4976736;28;20109;-77
2021/12/01 04:04:35;;;;;;;7.25;3.70;;;;;;;6.71;100.00;98863.84;4978613;28;20033;-76
2021/12/01 04:07:01;;;;;;;7.32;3.67;;;;;;;6.76;100.00;98885.16;5002609;28;20015;-76
2021/12/01 04:09:32;;;;;;;7.88;4.10;;;;;;;6.68;100.00;98887.75;4961658;28;20033;-76
2021/12/01 04:11:58;;;;;;;7.63;3.55;;;;;;;6.65;100.00;98880.19;4986624;28;20480;-76
2021/12/01 04:14:24;;;;;;;7.57;3.80;;;;;;;6.47;100.00;98839.13;4990580;28;20026;-76
2021/12/01 04:16:50;;;;;;;7.55;4.30;;;;;;;6.60;100.00;98858.84;4993244;28;20026;-76
2021/12/01 04:19:15;;;;;;;8.02;4.55;;;;;;;6.39;100.00;98830.41;4987573;28;20136;-76
2021/12/01 04:21:42;;;;;;;8.60;4.40;;;;;;;6.56;100.00;98847.84;4977595;28;20393;-77
2021/12/01 04:24:10;;;;;;;7.60;3.90;;;;;;;6.54;100.00;98846.34;4991201;28;20405;-76
2021/12/01 04:26:36;;;;;;;7.80;4.10;;;;;;;6.48;100.00;98827.66;4962319;28;20022;-76
2021/12/01 04:29:03;;;;;;;7.07;3.90;;;;;;;6.48;100.00;98847.81;4963750;28;20030;-76
2021/12/01 04:31:30;;;;;;;6.68;3.78;;;;;;;6.22;100.00;98777.88;4984472;28;20084;-77
2021/12/01 04:33:57;;;;;;;7.80;3.60;;;;;;;6.12;100.00;98776.34;4961807;28;20161;-76
2021/12/01 04:36:29;;;;;;;7.10;3.90;;;;;;;6.46;100.00;98811.25;4962697;28;20046;-75
2021/12/01 04:38:56;;;;;;;9.25;4.28;;;;;;;6.34;100.00;98796.78;4976714;28;20022;-76
2021/12/01 04:41:23;;;;;;;9.85;4.45;;;;;;;6.19;100.00;98764.25;4978691;28;20026;-77
2021/12/01 04:43:49;;;;;;;8.65;5.28;;;;;;;6.28;100.00;98779.03;4986210;28;21376;-76
2021/12/01 04:46:16;;;;;;;8.93;5.10;;;;;;;6.15;100.00;98774.22;4985733;28;20038;-76
2021/12/01 04:48:43;;;;;;;9.55;5.50;;;;;;;6.42;100.00;98788.13;4976777;28;20022;-75
2021/12/01 04:51:12;;;;;;;9.57;5.18;;;;;;;6.17;100.00;98743.44;4977233;28;20034;-75
2021/12/01 04:53:38;;;;;;;11.23;5.70;;;;;;;6.18;100.00;98750.34;4998645;28;20022;-75
2021/12/01 04:56:05;;;;;;;10.88;5.25;;;;;;;6.34;100.00;98757.47;4991348;28;20384;-76
2021/12/01 04:58:33;;;;;;;9.93;5.93;;;;;;;6.25;100.00;98737.44;4983727;28;20058;-76
2021/12/01 05:01:04;;;;;;;9.15;5.93;;;;;;;6.02;100.00;98710.94;4988976;28;20088;-76
2021/12/01 05:03:36;;;;;;;9.75;5.93;;;;;;;6.16;100.00;98720.03;4973224;28;20034;-75
2021/12/01 05:06:01;;;;;;;10.73;5.70;;;;;;;6.36;100.00;98759.91;4961250;28;20552;-76
2021/12/01 05:08:30;;;;;;;10.48;5.68;;;;;;;6.36;100.00;98733.69;4979116;28;20029;-75
2021/12/01 05:10:56;;;;;;;9.43;5.82;;;;;;;6.26;100.00;98699.75;5009096;28;20061;-75
2021/12/01 05:13:21;;;;;;;11.07;5.80;;;;;;;6.41;100.00;98728.81;4987941;28;20065;-75
2021/12/01 05:15:47;;;;;;;9.15;5.70;;;;;;;6.37;100.00;98715.19;4991401;28;20109;-75
2021/12/01 05:18:13;;;;;;;10.85;5.28;;;;;;;6.31;100.00;98710.56;4986278;28;20030;-74
2021/12/01 05:20:42;;;;;;;10.40;5.30;;;;;;;6.40;100.00;98724.53;4993588;28;20023;-75
2021/12/01 05:23:08;;;;;;;11.15;5.72;;;;;;;6.37;100.00;98707.31;4985108;28;20389;-75
2021/12/01 05:25:33;;;;;;;9.23;5.15;;;;;;;6.44;100.00;98710.13;4987695;28;20042;-74
2021/12/01 05:27:59;;;;;;;9.23;5.07;;;;;;;6.43;100.00;98698.03;4985186;28;20116;-74
2021/12/01 05:30:24;;;;;;;11.65;5.88;;;;;;;6.25;100.00;98675.34;4976548;28;20380;-74
2021/12/01 05:32:50;;;;;;;11.07;5.68;;;;;;;6.43;100.00;98696.22;4983099;28;20026;-74
2021/12/01 05:35:16;;;;;;;10.55;4.78;;;;;;;6.23;100.00;98658.94;4991875;28;20441;-74
2021/12/01 05:37:43;;;;;;;9.73;4.68;;;;;;;6.47;100.00;98686.22;4991465;28;20030;-74
2021/12/01 05:40:10;;;;;;;9.35;4.50;;;;;;;6.52;100.00;98688.34;4985484;28;20053;-75
2021/12/01 05:42:36;;;;;;;8.52;3.50;;;;;;;6.38;100.00;98661.81;4980503;28;20068;-75
2021/12/01 05:45:06;;;;;;;6.25;3.25;;;;;;;6.41;100.00;98664.09;4976696;28;20034;-75
2021/12/01 05:47:31;;;;;;;7.63;3.20;;;;;;;6.50;100.00;98675.44;4993713;28;20042;-75
2021/12/01 05:50:04;;;;;;;7.28;2.70;;;;;;;6.35;100.00;98650.78;5009506;28;20026;-76
2021/12/01 05:52:29;;;;;;;9.88;2.97;;;;;;;6.48;100.00;98680.00;4987410;28;20527;-76
2021/12/01 05:54:55;;;;;;;6.80;2.60;;;;;;;6.55;100.00;98674.94;4999122;28;20077;-75
2021/12/01 05:57:24;;;;;;;6.05;2.58;;;;;;;6.43;100.00;98642.97;4999049;28;20045;-75
2021/12/01 05:59:50;;;;;;;8.40;2.40;;;;;;;6.63;100.00;98651.34;4998379;28;20027;-75
2021/12/01 06:02:16;;;;;;;10.85;2.58;;;;;;;6.64;100.00;98656.44;4993295;28;20046;-75
2021/12/01 06:04:43;;;;;;;7.50;2.38;;;;;;;6.54;100.00;98598.09;4984458;28;20118;-75
2021/12/01 06:07:08;;;;;;;7.68;2.13;;;;;;;6.60;100.00;98602.66;4991211;28;20045;-75
2021/12/01 06:09:34;;;;;;;11.05;2.50;;;;;;;6.50;100.00;98581.03;4996409;28;20470;-77
2021/12/01 06:12:00;;;;;;;9.40;2.17;;;;;;;6.59;100.00;98580.06;4985091;28;20037;-76
2021/12/01 06:14:30;;;;;;;10.45;2.20;;;;;;;6.82;100.00;98616.16;4984287;28;20026;-76
2021/12/01 06:16:56;;;;;;;10.93;2.50;;;;;;;6.54;100.00;98590.22;4993125;28;20168;-75
2021/12/01 06:19:28;;;;;;;13.02;2.33;;;;;;;6.69;100.00;98601.69;4985331;28;20097;-74
2021/12/01 06:21:58;;;;;;;15.45;2.60;;;;;;;6.75;100.00;98602.06;5000361;28;20030;-77
2021/12/01 06:24:23;;;;;;;12.30;2.42;;;;;;;6.59;100.00;98571.38;4987338;28;20038;-75
2021/12/01 06:26:52;;;;;;;12.43;2.15;;;;;;;6.77;100.00;98594.81;5001544;28;20532;-80
2021/12/01 06:29:18;;;;;;;9.60;2.00;;;;;;;6.50;100.00;98567.94;4993887;28;20458;-75
2021/12/01 06:31:43;;;;;;;10.57;1.98;;;;;;;6.79;100.00;98611.22;5003544;28;20040;-77
2021/12/01 06:34:09;;;;;;;8.57;2.00;;;;;;;6.46;100.00;98562.19;5007496;28;20488;-77
2021/12/01 06:36:35;;;;;;;9.50;2.35;;;;;;;6.77;100.00;98600.06;4964106;28;20026;-76
2021/12/01 06:39:04;;;;;;;11.80;2.38;;;;;;;6.81;100.00;98586.47;4982820;28;20061;-77
2021/12/01 06:41:29;;;;;;;11.75;2.10;;;;;;;6.78;100.00;98581.53;4977491;28;20045;-75
2021/12/01 06:43:55;;;;;;;9.98;2.33;;;;;;;6.63;100.00;98576.13;4957038;28;20121;-76
2021/12/01 06:46:22;;;;;;;14.02;2.60;;;;;;;6.79;100.00;98567.47;4990806;28;20413;-75
2021/12/01 06:48:51;;;;;;;13.43;2.08;;;;;;;6.50;100.00;98525.16;4991976;28;20512;-76
2021/12/01 06:51:17;;;;;;;10.43;1.85;;;;;;;6.69;100.00;98543.19;4971821;28;20030;-75
2021/12/01 06:53:44;;;;;;;13.82;2.15;;;;;;;6.96;100.00;98581.38;4989070;28;20073;-76
2021/12/01 06:56:10;;;;;;;9.85;2.33;;;;;;;6.96;100.00;98555.13;4978469;23;20289;-76
2021/12/01 06:58:37;;;;;;;15.18;1.95;;;;;;;6.55;100.00;98502.69;4971952;28;20480;-74
2021/12/01 07:01:06;;;;;;;9.90;2.13;;;;;;;6.89;100.00;98543.66;4989560;28;20027;-76
2021/12/01 07:03:35;;;;;;;13.10;2.17;;;;;;;6.82;100.00;98524.34;4958033;28;20022;-76
2021/12/01 07:06:02;;;;;;;13.02;2.30;;;;;;;6.82;100.00;98509.41;4992197;28;20037;-74
2021/12/01 07:08:36;;;;;;;13.88;2.30;;;;;;;7.06;100.00;98547.09;4988505;28;20173;-75
2021/12/01 07:11:07;;;;;;;14.18;2.20;;;;;;;7.01;100.00;98520.53;4957817;28;20058;-74
2021/12/01 07:13:33;;;;;;;18.88;5.53;;;;;;;6.78;100.00;98502.84;4959326;28;20085;-77
2021/12/01 07:16:00;;;;;;;18.88;3.03;;;;;;;6.92;100.00;98516.28;4974357;28;20035;-77
2021/12/01 07:18:26;;;;;;;15.90;3.15;;;;;;;7.00;100.00;98524.97;4978975;28;20034;-76
2021/12/01 07:20:52;;;;;;;14.20;2.30;;;;;;;7.01;100.00;98523.16;4978237;28;20019;-76
2021/12/01 07:23:18;;;;;;;12.07;2.35;;;;;;;7.04;100.00;98496.56;4979124;28;20073;-74
2021/12/01 07:25:44;;;;;;;17.58;4.22;;;;;;;6.92;100.00;98474.31;4980946;28;20045;-76
2021/12/01 07:28:09;;;;;;;16.30;4.28;;;;;;;6.78;100.00;98463.50;4982683;28;20093;-72
2021/12/01 07:30:45;;;;;;;26.85;7.85;;;;;;;6.88;100.00;98519.25;4985033;28;20019;-74
2021/12/01 07:33:12;;;;;;;23.35;5.82;;;;;;;6.94;100.00;98543.16;4965424;28;20027;-76
2021/12/01 07:35:38;;;;;;;24.25;3.38;;;;;;;6.70;100.00;98508.13;5004395;28;20029;-73
2021/12/01 07:38:03;;;;;;;27.52;6.75;;;;;;;6.84;100.00;98535.47;4997424;28;20030;-74
2021/12/01 07:40:29;;;;;;;33.72;9.38;;;;;;;6.93;100.00;98557.25;4981479;28;20109;-76
2021/12/01 07:42:56;;;;;;;18.15;3.47;;;;;;;6.76;100.00;98527.59;4979989;28;20046;-76
2021/12/01 07:45:21;;;;;;;53.40;14.88;;;;;;;6.87;100.00;98567.44;4979527;28;20026;-75
2021/12/01 07:47:47;;;;;;;22.02;2.95;;;;;;;6.57;100.00;98507.78;4981821;28;20090;-76
2021/12/01 07:50:12;;;;;;;35.13;9.63;;;;;;;6.60;100.00;98524.00;4963573;28;20037;-77
2021/12/01 07:52:39;;;;;;;24.25;6.78;;;;;;;6.52;100.00;98518.78;4997096;28;20101;-77
2021/12/01 07:55:08;;;;;;;32.55;9.65;;;;;;;6.62;100.00;98519.41;4996957;28;20100;-74
2021/12/01 07:57:34;;;;;;;32.03;10.55;;;;;;;6.78;100.00;98547.44;4979905;28;20073;-76
2021/12/01 08:00:00;;;;;;;20.25;2.75;;;;;;;6.76;100.00;98554.66;4978780;28;20447;-76
2021/12/01 08:02:25;;;;;;;20.15;3.13;;;;;;;6.76;100.00;98549.41;4977735;28;20018;-75
2021/12/01 08:04:51;;;;;;;29.00;7.35;;;;;;;6.43;100.00;98496.97;4990280;28;20034;-76
2021/12/01 08:07:18;;;;;;;18.40;2.88;;;;;;;6.80;100.00;98549.91;4977278;28;20022;-74
2021/12/01 08:09:44;;;;;;;12.50;1.73;;;;;;;6.71;100.00;98556.94;4992860;28;20041;-73
2021/12/01 08:12:11;;;;;;;11.10;2.85;;;;;;;6.75;100.00;98558.28;4989581;28;20022;-75
2021/12/01 08:14:40;;;;;;;21.60;3.47;;;;;;;6.72;100.00;98555.16;4960779;28;20029;-76
2021/12/01 08:17:06;;;;;;;12.13;2.42;;;;;;;6.04;100.00;98522.94;4960848;28;20053;-77
2021/12/01 08:19:32;;;;;;;17.30;3.63;;;;;;;6.18;100.00;98538.06;4977310;28;20022;-75
2021/12/01 08:21:58;;;;;;;16.98;3.72;;;;;;;6.14;100.00;98526.25;4995133;28;20059;-75
2021/12/01 08:24:24;;;;;;;20.35;2.78;;;;;;;6.33;100.00;98553.97;4997489;28;20026;-74
2021/12/01 08:26:50;;;;;;;15.52;2.58;;;;;;;6.44;100.00;98571.19;4961711;28;20114;-74
2021/12/01 08:29:17;;;;;;;13.43;1.80;;;;;;;6.45;100.00;98563.16;4973832;28;20161;-75
2021/12/01 08:31:46;;;;;;;12.80;3.25;;;;;;;6.27;100.00;98534.47;4977012;28;20088;-76
2021/12/01 08:34:13;;;;;;;18.10;2.38;;;;;;;6.48;100.00;98569.88;4962918;28;20026;-75
2021/12/01 08:36:38;;;;;;;15.07;2.10;;;;;;;6.59;100.00;98595.78;4994192;28;20053;-72
2021/12/01 08:39:04;;;;;;;14.90;2.80;;;;;;;6.58;100.00;98585.47;5000572;28;20161;-72
2021/12/01 08:41:30;;;;;;;17.55;2.92;;;;;;;2.60;100.00;97957.06;4987009;28;20026;-73
2021/12/01 08:43:56;;;;;;;18.70;2.90;;;;;;;6.44;100.00;98573.81;4969768;28;20098;-72
2021/12/01 08:46:22;;;;;;;12.95;2.00;;;;;;;6.55;100.00;98588.41;4985722;28;20038;-72
2021/12/01 08:48:47;;;;;;;17.17;2.63;;;;;;;6.45;100.00;98578.91;4971676;28;20100;-73
2021/12/01 08:51:14;;;;;;;28.05;8.07;;;;;;;6.56;100.00;98601.34;4968831;28;20038;-73
2021/12/01 08:53:41;;;;;;;15.25;3.05;;;;;;;6.52;100.00;98573.00;4981203;28;20022;-72
2021/12/01 08:56:08;;;;;;;16.15;3.33;;;;;;;6.45;100.00;98571.03;4961113;28;20054;-73
2021/12/01 08:58:34;;;;;;;26.17;7.28;;;;;;;6.62;100.00;98602.50;4978199;28;20114;-71
2021/12/01 09:01:00;;;;;;;20.45;5.55;;;;;;;6.63;100.00;98594.50;4995039;28;20041;-72
2021/12/01 09:03:29;;;;;;;14.82;2.55;;;;;;;6.54;100.00;98629.56;4995505;28;20027;-72
2021/12/01 09:05:55;;;;;;;12.70;2.38;;;;;;;6.61;100.00;98619.25;4993602;28;20084;-72
2021/12/01 09:08:22;;;;;;;11.45;2.45;;;;;;;6.52;100.00;98628.06;4994291;28;20488;-73
2021/12/01 09:10:52;;;;;;;16.05;2.53;;;;;;;6.14;100.00;98640.75;4944385;28;20097;-71
2021/12/01 09:13:19;;;;;;;13.55;2.60;;;;;;;6.23;100.00;98634.53;4960287;28;20026;-74
2021/12/01 09:15:45;;;;;;;28.65;10.05;;;;;;;5.97;100.00;98638.06;4993866;28;20388;-74
2021/12/01 09:18:17;;;;;;;18.40;4.38;;;;;;;5.96;100.00;98636.41;4993191;28;20032;-72
2021/12/01 09:20:43;;;;;;;14.45;3.83;;;;;;;6.06;100.00;98654.59;4994080;28;20022;-74
2021/12/01 09:23:08;;;;;;;16.48;3.92;;;;;;;5.82;100.00;98603.72;4975895;28;20452;-74
2021/12/01 09:25:34;;;;;;;24.15;8.30;;;;;;;6.21;100.00;98655.66;4974951;28;20421;-74
2021/12/01 09:28:00;;;;;;;13.95;4.30;;;;;;;6.46;100.00;98656.56;4993129;28;20029;-74
2021/12/01 09:30:28;;;;;;;17.77;4.60;;;;;;;6.44;100.00;98650.66;4994020;28;20022;-74
2021/12/01 09:32:54;;;;;;;17.52;3.90;;;;;;;6.40;100.00;98641.47;4960019;28;20105;-75
2021/12/01 09:35:22;;;;;;;19.40;6.65;;;;;;;6.45;100.00;98654.94;4964250;28;20101;-74
2021/12/01 09:37:48;;;;;;;13.35;3.00;;;;;;;6.34;100.00;98639.50;4981877;28;20104;-74
2021/12/01 09:40:18;;;;;;;15.43;2.15;;;;;;;6.56;100.00;98653.78;5000297;28;20018;-74
2021/12/01 09:42:49;;;;;;;18.52;4.13;;;;;;;6.62;100.00;98628.75;4983195;28;20088;-74
2021/12/01 09:45:17;;;;;;;14.52;1.92;;;;;;;6.30;100.00;98627.69;4985619;28;20153;-73
2021/12/01 09:47:43;;;;;;;23.90;2.80;;;;;;;6.52;100.00;98644.63;5007184;28;20026;-74
2021/12/01 09:50:10;;;;;;;13.93;1.80;;;;;;;6.33;100.00;98629.16;4968826;28;20026;-74
2021/12/01 09:52:36;;;;;;;12.40;2.28;;;;;;;6.40;100.00;98603.94;4979836;28;20194;-74
2021/12/01 09:55:04;;;;;;;13.20;2.20;;;;;;;6.54;100.00;98642.66;4981412;28;20445;-74
2021/12/01 09:57:31;;;;;;;15.07;2.00;;;;;;;6.43;100.00;98649.03;4979802;28;20038;-74
2021/12/01 09:59:57;;;;;;;13.40;2.35;;;;;;;6.55;100.00;98646.91;4994089;28;20405;-74
2021/12/01 10:02:25;;;;;;;13.48;2.70;;;;;;;6.52;100.00;98647.25;4974932;28;20036;-73
2021/12/01 10:04:51;;;;;;;14.88;2.58;;;;;;;6.36;100.00;98634.06;4992611;28;20026;-73
2021/12/01 10:07:18;;;;;;;19.63;2.38;;;;;;;6.30;100.00;98648.66;4942573;28;20041;-73
2021/12/01 10:09:48;;;;;;;12.40;1.98;;;;;;;6.57;100.00;98644.97;4991114;28;20033;-74
2021/12/01 10:12:15;;;;;;;80.68;38.10;;;;;;;6.33;100.00;98639.66;4975274;28;20050;-76
2021/12/01 10:14:48;;;;;;;21.65;5.75;;;;;;;6.19;100.00;98626.16;4959935;28;20053;-75
2021/12/01 10:17:33;;;;;;;19.35;2.67;;;;;;;6.26;100.00;98644.69;5003095;28;20389;-75
2021/12/01 10:20:13;;;;;;;13.38;1.77;;;;;;;6.31;100.00;98654.72;4980582;28;20066;-74
2021/12/01 10:22:39;;;;;;;13.02;2.15;;;;;;;6.27;100.00;98644.56;4993162;28;20041;-76
2021/12/01 10:25:26;;;;;;;17.67;2.05;;;;;;;6.37;100.00;98643.59;4993991;28;20026;-74
2021/12/01 10:27:52;;;;;;;16.40;2.08;;;;;;;6.51;100.00;98642.16;4989263;28;20041;-72
2021/12/01 10:30:39;;;;;;;15.90;1.92;;;;;;;6.24;100.00;98626.50;4973897;28;20038;-75
2021/12/01 10:33:13;;;;;;;15.23;2.05;;;;;;;6.35;100.00;98643.75;4969902;28;20484;-74
2021/12/01 10:35:39;;;;;;;55.65;22.27;;;;;;;6.57;100.00;98649.38;4958718;28;20034;-75
2021/12/01 10:38:07;;;;;;;19.88;2.83;;;;;;;6.17;100.00;98622.06;4954717;28;20030;-75
2021/12/01 10:40:35;;;;;;;23.38;3.70;;;;;;;6.48;100.00;98632.81;4972702;28;20461;-74
2021/12/01 10:43:06;;;;;;;15.82;2.22;;;;;;;6.65;100.00;98639.75;4971245;28;20035;-77
2021/12/01 10:45:37;;;;;;;26.17;3.35;;;;;;;6.62;100.00;98634.81;4976163;28;20022;-73
2021/12/01 10:48:09;;;;;;;23.55;6.50;;;;;;;6.60;100.00;98642.00;4990810;28;20023;-76
2021/12/01 10:50:37;;;;;;;19.52;5.45;;;;;;;6.54;100.00;98644.44;4974363;28;20090;-75
2021/12/01 10:53:10;;;;;;;17.30;2.50;;;;;;;6.49;100.00;98639.69;4987845;28;20031;-75
2021/12/01 10:55:44;;;;;;;13.48;2.50;;;;;;;6.56;100.00;98647.72;4993113;28;20050;-71
2021/12/01 10:58:10;;;;;;;19.85;2.47;;;;;;;6.37;100.00;98612.94;4994982;28;20057;-74
2021/12/01 11:00:39;;;;;;;16.73;2.60;;;;;;;6.63;100.00;98648.72;4976923;28;20026;-75
2021/12/01 11:03:08;;;;;;;14.23;2.67;;;;;;;6.59;100.00;98645.63;4976501;28;20129;-75
2021/12/01 11:05:37;;;;;;;17.95;3.55;;;;;;;6.39;100.00;98631.16;4978005;28;20503;-76
2021/12/01 11:08:17;;;;;;;19.55;2.10;;;;;;;6.45;100.00;98625.28;4999829;28;20038;-75
2021/12/01 11:10:52;;;;;;;24.25;6.80;;;;;;;6.66;100.00;98649.25;4987195;28;20025;-78
2021/12/01 11:13:19;;;;;;;20.75;3.90;;;;;;;6.57;100.00;98636.28;4985578;28;20469;-73
2021/12/01 11:15:51;;;;;;;12.52;2.05;;;;;;;6.63;100.00;98636.47;4995913;28;20101;-76
2021/12/01 11:18:22;;;;;;;16.88;3.35;;;;;;;6.52;100.00;98649.03;4993243;28;20034;-71
2021/12/01 11:20:55;;;;;;;17.67;2.13;;;;;;;6.65;100.00;98641.53;4961798;28;20030;-74
2021/12/01 11:23:29;;;;;;;17.13;2.88;;;;;;;6.65;100.00;98649.38;4979839;28;20071;-77
2021/12/01 11:26:00;;;;;;;13.27;2.55;;;;;;;6.55;100.00;98615.44;4979521;28;20022;-76
2021/12/01 11:28:32;;;;;;;15.25;2.05;;;;;;;6.54;100.00;98618.22;4980328;28;20105;-76
2021/12/01 11:31:01;;;;;;;18.13;2.00;;;;;;;6.47;100.00;98621.50;4995627;28;20018;-77
2021/12/01 11:33:30;;;;;;;11.77;3.25;;;;;;;6.69;100.00;98593.81;4977484;28;20018;-77
2021/12/01 11:36:03;;;;;;;18.17;2.45;;;;;;;6.80;100.00;98605.00;4991503;28;20034;-76